KAVX/AVX METAR and TAF weather

Enter ICAO airport designator
Station Type Date Time Source
KAVX METAR 2022/12/05 15:03 UTC NOAA

KAVX 051503Z AUTO 26007KT 8SM BKN003 10/09 A3006 RMK AO2 T01000089


Station Type Date Time Source
KAVX Decoded METAR 2022/12/05 15:03 UTC NOAA

AVALON CATALINA AIRPORT, CA, United States (KAVX) 33-24N 118-25W 482M
Dec 05, 2022 - 10:03 AM EST / 2022.12.05 1503 UTC
Wind: from the W (260 degrees) at 8 MPH (7 KT):0
Visibility: 8 mile(s):0
Sky conditions: mostly cloudy
Temperature: 50.0 F (10.0 C)
Dew Point: 48.0 F (8.9 C)
Relative Humidity: 92%
Pressure (altimeter): 30.06 in. Hg (1017 hPa)
ob: KAVX 051503Z AUTO 26007KT 8SM BKN003 10/09 A3006 RMK AO2 T01000089
cycle: 15

Station Type Date Time Source
KAVX TAF UTC NOAA

Error!

Example: see airport list